Time;durP1;ratioP1;P1;durP2;ratioP2;P2;SDS_P1;SDS_P2;PMS_P1;PMS_P2;Temp;Humidity;BMP_temperature;BMP_pressure;BME280_temperature;BME280_humidity;BME280_pressure;Samples;Min_cycle;Max_cycle;Signal;HPM_P1;HPM_P2
2021/08/25 00:00:05;;;;;;;21.20;18.97;;;;;;;22.29;51.64;95021.69;5030014;28;20197;-71
2021/08/25 00:02:39;;;;;;;22.10;18.73;;;;;;;22.26;51.79;95027.69;5033474;28;20257;-72
2021/08/25 00:05:08;;;;;;;19.43;17.47;;;;;;;22.25;51.54;95025.34;5049678;28;20204;-72
2021/08/25 00:07:36;;;;;;;21.60;18.70;;;;;;;22.20;51.13;95012.19;5035552;28;20209;-69
2021/08/25 00:10:03;;;;;;;20.13;18.03;;;;;;;22.37;51.29;95028.84;5049920;28;20196;-71
2021/08/25 00:12:30;;;;;;;28.40;20.73;;;;;;;22.17;52.42;95026.94;5035269;28;20232;-71
2021/08/25 00:14:57;;;;;;;21.37;19.07;;;;;;;22.13;52.31;95024.16;5052292;28;20257;-70
2021/08/25 00:17:24;;;;;;;24.23;20.80;;;;;;;22.18;52.38;95025.88;5042404;28;20207;-69
2021/08/25 00:19:51;;;;;;;23.23;19.80;;;;;;;22.17;52.32;95034.97;5050615;28;20227;-69
2021/08/25 00:22:18;;;;;;;22.63;17.67;;;;;;;21.94;52.00;95033.69;5053422;28;20215;-70
2021/08/25 00:24:45;;;;;;;24.50;18.17;;;;;;;21.76;53.42;95037.53;5039153;28;20254;-70
2021/08/25 00:27:12;;;;;;;21.77;19.43;;;;;;;21.87;53.52;95036.88;5053551;28;20192;-71
2021/08/25 00:29:39;;;;;;;21.90;19.57;;;;;;;21.78;53.91;95032.66;5053522;28;20204;-70
2021/08/25 00:32:07;;;;;;;22.67;20.03;;;;;;;21.78;53.84;95016.66;5044002;28;20220;-70
2021/08/25 00:34:35;;;;;;;26.23;21.43;;;;;;;21.80;54.07;95023.28;5057610;28;20200;-70
2021/08/25 00:37:02;;;;;;;24.40;21.13;;;;;;;21.49;55.51;95027.31;5048417;28;20552;-69
2021/08/25 00:39:28;;;;;;;27.27;21.33;;;;;;;21.32;56.00;95022.03;5044157;28;20192;-68
2021/08/25 00:41:56;;;;;;;28.47;21.43;;;;;;;21.43;55.70;95025.91;5038202;28;20232;-72
2021/08/25 00:44:23;;;;;;;25.50;21.80;;;;;;;21.35;55.70;95019.50;5044313;28;20717;-71
2021/08/25 00:46:49;;;;;;;23.40;20.90;;;;;;;21.08;56.90;95020.72;5046692;28;20670;-68
2021/08/25 00:49:18;;;;;;;26.00;21.40;;;;;;;21.17;56.70;95006.59;5035399;28;20192;-70
2021/08/25 00:51:45;;;;;;;30.40;21.70;;;;;;;21.50;55.30;95015.53;5044770;28;20242;-70
2021/08/25 00:54:16;;;;;;;25.97;21.17;;;;;;;21.68;54.77;95006.34;5053076;28;20201;-71
2021/08/25 00:56:44;;;;;;;26.10;22.07;;;;;;;21.62;55.10;95002.31;5053267;28;20215;-69
2021/08/25 00:59:13;;;;;;;23.30;20.80;;;;;;;21.35;56.03;95013.44;5050185;28;20208;-69
2021/08/25 01:01:52;;;;;;;25.30;21.87;;;;;;;21.27;56.43;95016.88;5044721;28;20196;-68
2021/08/25 01:04:47;;;;;;;23.47;20.63;;;;;;;21.08;57.17;95019.91;5053536;28;20224;-70
2021/08/25 01:07:14;;;;;;;29.03;21.97;;;;;;;21.28;56.35;95013.91;5051883;28;20285;-70
2021/08/25 01:09:41;;;;;;;25.33;21.47;;;;;;;21.28;56.53;95013.91;5052834;28;20195;-71
2021/08/25 01:12:12;;;;;;;25.63;21.27;;;;;;;21.25;56.69;95016.41;5052551;28;20235;-70
2021/08/25 01:14:42;;;;;;;26.40;22.77;;;;;;;21.33;56.38;95004.97;5052777;28;20192;-72
2021/08/25 01:17:10;;;;;;;28.23;20.90;;;;;;;21.35;56.33;95002.75;5052469;28;20667;-69
2021/08/25 01:20:02;;;;;;;26.90;21.07;;;;;;;21.50;55.48;94999.53;5052122;28;20250;-71
2021/08/25 01:22:30;;;;;;;32.20;21.57;;;;;;;21.24;55.91;94982.88;5041537;28;20205;-71
2021/08/25 01:24:58;;;;;;;26.87;20.63;;;;;;;21.47;55.60;94994.84;5049207;28;20193;-70
2021/08/25 01:27:28;;;;;;;23.40;20.90;;;;;;;21.49;55.55;94992.66;5050066;28;20258;-70
2021/08/25 01:29:59;;;;;;;23.67;20.93;;;;;;;21.59;55.17;94992.28;5039026;28;20206;-69
2021/08/25 01:32:27;;;;;;;23.07;20.63;;;;;;;21.68;54.87;94993.81;5052025;28;20224;-68
2021/08/25 01:34:55;;;;;;;26.03;20.70;;;;;;;21.24;56.12;94980.22;5051218;28;20203;-70
2021/08/25 01:37:23;;;;;;;23.13;20.63;;;;;;;21.56;55.19;94977.72;5039255;28;20200;-71
2021/08/25 01:39:52;;;;;;;24.53;20.97;;;;;;;21.63;54.97;94969.19;5038656;28;20193;-70
2021/08/25 01:42:20;;;;;;;28.53;21.20;;;;;;;21.53;55.49;94977.59;5037720;28;20710;-70
2021/08/25 01:44:49;;;;;;;27.53;21.57;;;;;;;21.79;54.52;94972.91;5052189;28;20197;-70
2021/08/25 01:47:17;;;;;;;26.30;20.23;;;;;;;21.83;54.18;94960.47;5032717;28;20200;-73
2021/08/25 01:49:47;;;;;;;24.67;20.10;;;;;;;21.74;54.70;94963.19;5043463;28;20659;-69
2021/08/25 01:52:16;;;;;;;24.50;20.37;;;;;;;21.87;54.23;94945.41;5049272;28;20267;-71
2021/08/25 01:54:45;;;;;;;24.73;20.17;;;;;;;21.81;54.19;94939.47;5040798;28;20193;-69
2021/08/25 01:57:13;;;;;;;21.87;19.63;;;;;;;21.89;53.93;94937.84;5037737;28;20675;-68
2021/08/25 01:59:40;;;;;;;22.50;19.53;;;;;;;21.94;53.44;94951.00;5045295;28;20745;-68
2021/08/25 02:02:07;;;;;;;22.13;19.47;;;;;;;21.90;53.87;94944.75;5045157;28;20204;-67
2021/08/25 02:04:37;;;;;;;23.03;20.37;;;;;;;21.83;53.83;94944.47;5046084;28;20758;-70
2021/08/25 02:07:05;;;;;;;23.50;19.67;;;;;;;21.92;53.90;94939.84;5044113;28;20204;-70
2021/08/25 02:09:32;;;;;;;22.53;20.07;;;;;;;21.92;53.56;94940.66;5033329;28;20580;-69
2021/08/25 02:11:59;;;;;;;22.03;19.13;;;;;;;21.92;53.73;94942.53;5042308;28;20227;-69
2021/08/25 02:14:26;;;;;;;22.27;19.83;;;;;;;21.96;53.89;94930.09;5048551;28;20284;-69
2021/08/25 02:16:53;;;;;;;24.00;19.70;;;;;;;21.94;53.82;94937.66;5033541;28;20205;-69
2021/08/25 02:19:19;;;;;;;24.37;20.10;;;;;;;21.95;53.76;94941.91;5031995;28;20197;-70
2021/08/25 02:21:46;;;;;;;23.07;20.63;;;;;;;21.89;54.11;94937.84;5049899;28;20288;-70
2021/08/25 02:24:13;;;;;;;22.87;18.10;;;;;;;21.84;53.30;94940.72;5051421;28;20219;-71
2021/08/25 02:26:40;;;;;;;18.40;15.83;;;;;;;21.79;51.53;94939.00;5036848;28;20207;-72
2021/08/25 02:29:07;;;;;;;15.23;13.10;;;;;;;21.50;50.44;94930.22;5044630;28;20642;-69
2021/08/25 02:31:34;;;;;;;14.17;10.60;;;;;;;21.35;48.65;94928.13;5046143;28;20216;-70
2021/08/25 02:34:02;;;;;;;13.03;10.47;;;;;;;21.33;48.69;94938.31;5050285;28;20200;-71
2021/08/25 02:36:29;;;;;;;11.47;9.93;;;;;;;21.50;48.08;94940.88;5049994;28;20203;-69
2021/08/25 02:38:56;;;;;;;10.93;9.27;;;;;;;21.49;47.37;94944.66;5051553;28;20189;-69
2021/08/25 02:41:23;;;;;;;15.23;9.70;;;;;;;21.57;47.03;94951.84;5044725;28;20232;-71
2021/08/25 02:43:50;;;;;;;10.70;9.20;;;;;;;21.59;46.56;94955.72;5050684;28;20192;-70
2021/08/25 02:46:18;;;;;;;9.73;8.73;;;;;;;21.48;46.09;94961.75;5050647;28;20275;-69
2021/08/25 02:48:46;;;;;;;11.73;9.30;;;;;;;21.45;46.25;94960.53;5043946;28;20590;-69
2021/08/25 02:51:13;;;;;;;9.97;8.63;;;;;;;21.36;45.51;94961.66;5030280;28;20197;-71
2021/08/25 02:53:40;;;;;;;12.97;8.37;;;;;;;21.34;46.04;94969.19;5031019;28;20196;-70
2021/08/25 02:56:07;;;;;;;9.07;7.50;;;;;;;21.33;46.29;94972.97;5036472;28;20206;-71
2021/08/25 02:58:34;;;;;;;9.13;8.07;;;;;;;21.39;45.72;94982.34;5051199;28;20201;-70
2021/08/25 03:01:01;;;;;;;11.83;8.23;;;;;;;21.30;46.46;94985.03;5045410;28;20200;-71
2021/08/25 03:03:28;;;;;;;13.30;8.37;;;;;;;21.41;46.66;94993.47;5041482;28;20227;-71
2021/08/25 03:05:55;;;;;;;10.87;8.73;;;;;;;21.36;46.82;94996.31;5050090;28;20196;-70
2021/08/25 03:08:22;;;;;;;10.50;8.67;;;;;;;21.45;46.69;95002.38;5041715;28;20206;-71
2021/08/25 03:10:49;;;;;;;11.13;8.00;;;;;;;21.54;46.54;95003.13;5029576;28;20304;-70
2021/08/25 03:13:16;;;;;;;11.80;8.80;;;;;;;21.43;47.13;95005.38;5034012;28;20205;-71
2021/08/25 03:16:03;;;;;;;12.00;9.13;;;;;;;21.44;47.26;95011.50;5031068;28;20259;-69
2021/08/25 03:18:29;;;;;;;14.00;9.70;;;;;;;21.42;47.38;95013.72;5032857;28;20197;-70
2021/08/25 03:20:56;;;;;;;9.87;8.60;;;;;;;21.47;47.74;95019.63;5032867;28;20197;-69
2021/08/25 03:23:25;;;;;;;10.10;9.10;;;;;;;21.42;47.76;95024.38;5040817;28;20634;-71
2021/08/25 03:25:53;;;;;;;11.90;9.57;;;;;;;21.30;47.67;95006.38;5031882;28;20575;-70
2021/08/25 03:28:20;;;;;;;14.43;9.50;;;;;;;21.29;47.76;95020.03;5035884;28;20197;-70
2021/08/25 03:30:47;;;;;;;18.10;10.40;;;;;;;21.34;47.52;95009.97;5038025;28;20197;-71
2021/08/25 03:33:14;;;;;;;12.47;9.00;;;;;;;21.48;47.33;95012.41;5049755;28;20315;-70
2021/08/25 03:35:41;;;;;;;17.80;10.40;;;;;;;21.38;48.93;95012.78;5044096;28;20200;-70
2021/08/25 03:38:08;;;;;;;20.43;9.93;;;;;;;21.31;51.03;95012.50;5045174;28;20204;-70
2021/08/25 03:40:35;;;;;;;26.53;10.50;;;;;;;21.03;52.59;94988.13;5047574;28;20197;-69
2021/08/25 03:43:01;;;;;;;13.10;10.47;;;;;;;21.21;51.98;95007.50;5040400;28;20196;-69
2021/08/25 03:45:28;;;;;;;18.83;11.53;;;;;;;21.18;52.11;95009.69;5047450;28;20188;-68
2021/08/25 03:47:55;;;;;;;14.20;11.50;;;;;;;20.88;51.14;95021.34;5044881;28;20193;-71
2021/08/25 03:50:22;;;;;;;14.83;11.63;;;;;;;20.85;52.07;95023.88;5029914;28;20284;-70
2021/08/25 03:52:49;;;;;;;15.00;12.20;;;;;;;20.94;52.99;95005.97;5049200;28;20339;-71
2021/08/25 03:55:17;;;;;;;16.30;12.63;;;;;;;20.87;54.06;94998.50;5047747;28;20184;-70
2021/08/25 03:57:44;;;;;;;17.17;12.60;;;;;;;20.88;53.99;95005.38;5035855;28;20988;-72
2021/08/25 04:00:11;;;;;;;14.70;12.30;;;;;;;20.84;53.88;94993.78;5046679;28;20200;-72
2021/08/25 04:02:38;;;;;;;19.83;13.87;;;;;;;20.86;55.02;95006.78;5032052;28;20193;-70
2021/08/25 04:05:05;;;;;;;17.70;14.40;;;;;;;20.80;55.90;95014.16;5029540;28;20244;-72
2021/08/25 04:07:32;;;;;;;20.70;15.17;;;;;;;20.65;56.23;95001.34;5030609;28;20193;-71
2021/08/25 04:10:01;;;;;;;20.27;14.97;;;;;;;20.60;56.10;94998.06;5031225;28;20189;-75
2021/08/25 04:12:29;;;;;;;18.50;16.17;;;;;;;20.42;55.44;94994.63;5029375;28;20328;-71
2021/08/25 04:14:55;;;;;;;19.63;16.17;;;;;;;20.53;56.75;94995.09;5035120;28;20192;-71
2021/08/25 04:17:23;;;;;;;20.27;15.63;;;;;;;20.59;56.76;94985.84;5030157;28;20659;-74
2021/08/25 04:19:49;;;;;;;18.40;15.50;;;;;;;20.53;56.34;94976.47;5032049;28;20612;-73
2021/08/25 04:22:16;;;;;;;19.17;15.10;;;;;;;20.26;55.70;94985.53;5029932;28;20213;-70
2021/08/25 04:24:43;;;;;;;18.37;16.37;;;;;;;20.29;56.18;94981.47;5033678;28;20188;-73
2021/08/25 04:27:10;;;;;;;21.80;17.37;;;;;;;20.44;58.08;94988.97;5029173;28;20196;-73
2021/08/25 04:29:37;;;;;;;23.70;17.63;;;;;;;20.58;57.94;94990.41;5034926;28;20188;-70
2021/08/25 04:32:04;;;;;;;23.40;16.40;;;;;;;20.42;58.63;94986.63;5030552;28;20256;-71
2021/08/25 04:34:31;;;;;;;23.60;16.23;;;;;;;20.38;58.45;94975.06;5031045;28;20686;-70
2021/08/25 04:36:58;;;;;;;20.93;17.03;;;;;;;20.43;58.10;94988.22;5034477;28;20572;-72
2021/08/25 04:39:25;;;;;;;20.27;17.30;;;;;;;20.49;57.23;94992.25;5030463;28;20199;-71
2021/08/25 04:41:52;;;;;;;22.50;17.23;;;;;;;20.52;57.78;94981.00;5030429;28;20244;-72
2021/08/25 04:44:19;;;;;;;22.77;18.17;;;;;;;20.55;57.34;94982.22;5029549;28;20667;-72
2021/08/25 04:46:46;;;;;;;23.20;18.43;;;;;;;20.48;57.90;94977.41;5033851;28;20185;-71
2021/08/25 04:49:14;;;;;;;20.40;18.07;;;;;;;20.49;58.09;94975.53;5041536;28;20247;-68
2021/08/25 04:51:41;;;;;;;28.57;18.77;;;;;;;20.54;57.79;94965.50;5029758;28;20189;-68
2021/08/25 04:54:08;;;;;;;24.80;19.63;;;;;;;20.63;56.90;94950.28;5029117;28;20671;-72
2021/08/25 04:56:35;;;;;;;24.80;21.30;;;;;;;20.58;58.25;94950.47;5028153;28;20770;-70
2021/08/25 04:59:02;;;;;;;28.37;22.63;;;;;;;20.62;59.15;94964.69;5032604;28;20197;-73
2021/08/25 05:01:29;;;;;;;27.37;21.60;;;;;;;20.58;59.33;94963.78;5031625;28;20577;-74
2021/08/25 05:03:57;;;;;;;26.47;22.10;;;;;;;20.61;59.23;94949.81;5034050;28;20208;-70
2021/08/25 05:06:23;;;;;;;24.87;22.17;;;;;;;20.78;58.82;94957.75;5039101;28;20193;-68
2021/08/25 05:08:50;;;;;;;29.43;23.10;;;;;;;20.78;58.76;94944.44;5035344;28;20288;-70
2021/08/25 05:11:17;;;;;;;27.70;24.00;;;;;;;20.92;58.43;94952.25;5035063;28;20201;-75
2021/08/25 05:13:49;;;;;;;28.97;24.30;;;;;;;21.03;58.88;94958.81;5032053;28;20642;-71
2021/08/25 05:16:16;;;;;;;29.80;22.73;;;;;;;21.06;58.35;94948.31;5037251;28;20589;-70
2021/08/25 05:18:43;;;;;;;31.70;24.10;;;;;;;20.95;59.11;94948.94;5035344;28;20228;-72
2021/08/25 05:21:10;;;;;;;29.03;23.10;;;;;;;21.05;58.98;94938.75;5035962;28;20287;-72
2021/08/25 05:23:37;;;;;;;26.23;22.67;;;;;;;20.98;59.24;94951.72;5036385;28;20216;-71
2021/08/25 05:26:05;;;;;;;26.30;21.87;;;;;;;21.10;58.53;94959.88;5032597;28;20193;-70
2021/08/25 05:28:34;;;;;;;29.47;22.57;;;;;;;21.04;57.35;94960.38;5041424;28;20201;-75
2021/08/25 05:31:01;;;;;;;30.07;24.07;;;;;;;20.97;56.07;94970.72;5031768;28;20193;-69
2021/08/25 05:33:28;;;;;;;20.70;16.03;;;;;;;20.88;55.98;94948.66;5037325;28;20232;-72
2021/08/25 05:35:57;;;;;;;17.90;15.43;;;;;;;20.94;56.31;94961.50;5033254;28;20185;-72
2021/08/25 05:38:23;;;;;;;17.20;14.03;;;;;;;21.17;56.06;94942.63;5035320;28;20566;-71
2021/08/25 05:40:51;;;;;;;17.47;15.27;;;;;;;21.15;56.01;94958.91;5039194;28;20238;-71
2021/08/25 05:43:18;;;;;;;19.67;16.70;;;;;;;21.07;55.06;94955.22;5035076;28;20584;-70
2021/08/25 05:45:45;;;;;;;23.57;17.23;;;;;;;21.02;55.43;94960.69;5032440;28;20694;-71
2021/08/25 05:48:12;;;;;;;25.43;18.67;;;;;;;21.02;56.14;94962.59;5031699;28;20197;-71
2021/08/25 05:50:39;;;;;;;26.33;18.77;;;;;;;20.98;57.32;94956.31;5032637;28;20193;-70
2021/08/25 05:53:07;;;;;;;20.60;18.40;;;;;;;21.17;57.21;94962.84;5031868;28;20217;-71
2021/08/25 05:55:34;;;;;;;24.83;18.67;;;;;;;21.08;57.48;94967.41;5033779;28;20192;-72
2021/08/25 05:58:03;;;;;;;22.83;18.40;;;;;;;21.35;56.36;94970.78;5033793;28;20202;-72
2021/08/25 06:00:30;;;;;;;17.67;14.80;;;;;;;21.37;54.91;94973.91;5032859;28;20212;-71
2021/08/25 06:02:57;;;;;;;24.57;14.33;;;;;;;21.70;54.16;94966.81;5037274;28;20280;-69
2021/08/25 06:05:25;;;;;;;21.10;15.47;;;;;;;21.71;54.34;94963.03;5031970;28;20198;-71
2021/08/25 06:07:53;;;;;;;22.70;19.97;;;;;;;21.83;55.63;94963.16;5034136;28;20189;-72
2021/08/25 06:10:20;;;;;;;30.13;23.93;;;;;;;21.98;55.32;94958.03;5032007;28;20200;-71
2021/08/25 06:12:47;;;;;;;27.90;21.20;;;;;;;21.93;55.36;94958.22;5033062;28;20308;-71
2021/08/25 06:15:14;;;;;;;28.50;22.10;;;;;;;22.17;55.29;94954.88;5031306;28;20197;-73
2021/08/25 06:17:41;;;;;;;25.67;22.10;;;;;;;22.12;55.49;94947.09;5034521;28;20231;-71
2021/08/25 06:20:09;;;;;;;28.30;22.63;;;;;;;22.14;55.21;94944.88;5030419;28;20683;-71
2021/08/25 06:22:36;;;;;;;28.93;21.73;;;;;;;22.30;54.52;94937.81;5031459;28;20570;-72
2021/08/25 06:25:03;;;;;;;28.63;22.10;;;;;;;22.28;54.52;94940.03;5031354;28;20694;-72
2021/08/25 06:27:30;;;;;;;26.77;21.77;;;;;;;22.17;54.58;94938.88;5030118;28;20685;-70
2021/08/25 06:29:57;;;;;;;29.33;22.07;;;;;;;22.19;54.33;94942.00;5031703;28;20190;-71
2021/08/25 06:32:24;;;;;;;25.60;22.90;;;;;;;22.05;54.77;94936.16;5030779;28;20626;-66
2021/08/25 06:34:51;;;;;;;26.97;22.10;;;;;;;22.08;55.33;94935.50;5032331;28;20205;-68
2021/08/25 06:37:18;;;;;;;30.40;21.97;;;;;;;22.31;54.55;94931.41;5030285;28;20224;-68
2021/08/25 06:39:45;;;;;;;26.77;21.60;;;;;;;22.38;53.66;94934.31;5030106;28;20224;-70
2021/08/25 06:42:12;;;;;;;26.33;20.63;;;;;;;22.33;54.62;94942.53;5033945;28;20236;-66
2021/08/25 06:44:39;;;;;;;27.30;22.90;;;;;;;22.41;53.84;94930.22;5028585;28;20627;-68
2021/08/25 06:47:06;;;;;;;34.90;27.97;;;;;;;22.41;53.65;94933.66;5029371;28;20197;-67
2021/08/25 06:49:35;;;;;;;29.63;24.27;;;;;;;22.46;53.53;94936.13;5033697;28;20261;-68
2021/08/25 06:52:02;;;;;;;27.03;19.67;;;;;;;22.64;53.12;94942.91;5033750;28;20201;-68
2021/08/25 06:54:29;;;;;;;24.57;19.63;;;;;;;22.54;52.99;94937.13;5028299;28;20566;-68
2021/08/25 06:56:56;;;;;;;26.53;19.90;;;;;;;22.58;53.24;94928.19;5032384;28;20227;-71
2021/08/25 06:59:23;;;;;;;23.07;19.10;;;;;;;22.59;52.86;94929.72;5033100;28;20197;-68
2021/08/25 07:01:50;;;;;;;25.83;17.40;;;;;;;22.75;52.79;94928.00;5030086;28;20197;-65
2021/08/25 07:04:18;;;;;;;26.53;18.43;;;;;;;22.94;51.84;94928.25;5033045;28;20196;-66
2021/08/25 07:06:45;;;;;;;25.47;18.40;;;;;;;23.03;50.88;94944.97;5031908;28;20201;-67
2021/08/25 07:09:12;;;;;;;24.57;18.40;;;;;;;23.00;51.02;94934.97;5035413;28;20197;-68
2021/08/25 07:11:41;;;;;;;35.77;31.27;;;;;;;22.84;50.95;94941.28;5031607;28;20189;-69
2021/08/25 07:14:08;;;;;;;100.00;88.63;;;;;;;23.08;51.20;94942.06;5033967;28;20261;-68
2021/08/25 07:16:35;;;;;;;26.10;18.40;;;;;;;22.95;51.25;94942.41;5032544;28;20243;-68
2021/08/25 07:19:03;;;;;;;30.47;21.47;;;;;;;22.90;51.44;94940.72;5030514;28;20568;-68
2021/08/25 07:21:31;;;;;;;24.70;19.30;;;;;;;22.96;51.18;94944.75;5039138;28;20659;-67
2021/08/25 07:23:58;;;;;;;24.90;18.57;;;;;;;22.91;50.71;94938.84;5034087;28;20328;-68
2021/08/25 07:26:27;;;;;;;26.07;19.33;;;;;;;22.88;50.73;94936.84;5029944;28;20699;-67
2021/08/25 07:28:54;;;;;;;24.83;19.03;;;;;;;22.81;50.94;94932.00;5031506;28;20205;-69
2021/08/25 07:31:21;;;;;;;28.13;19.23;;;;;;;23.35;51.03;94931.88;5033443;28;20197;-67
2021/08/25 07:33:48;;;;;;;25.00;19.67;;;;;;;23.07;50.72;94935.19;5037089;28;20231;-67
2021/08/25 07:36:17;;;;;;;26.57;19.03;;;;;;;23.16;50.48;94937.00;5042946;28;20208;-68
2021/08/25 07:38:46;;;;;;;23.23;19.07;;;;;;;23.27;50.55;94933.53;5032389;28;20224;-70
2021/08/25 07:41:13;;;;;;;25.60;18.50;;;;;;;23.40;49.50;94931.66;5031711;28;20241;-69
2021/08/25 07:43:41;;;;;;;26.10;21.53;;;;;;;23.29;48.91;94930.50;5032069;28;20212;-69
2021/08/25 07:46:08;;;;;;;23.17;18.77;;;;;;;23.41;49.66;94919.88;5030305;28;20272;-69
2021/08/25 07:48:35;;;;;;;22.63;17.60;;;;;;;23.50;49.73;94915.94;5030374;28;20231;-70
2021/08/25 07:51:08;;;;;;;26.00;21.87;;;;;;;23.76;48.59;94915.56;5037341;28;20207;-69
2021/08/25 07:53:36;;;;;;;21.83;18.37;;;;;;;23.35;47.27;94921.97;5037372;28;20229;-69
2021/08/25 07:56:04;;;;;;;22.13;14.10;;;;;;;23.70;49.26;94908.91;5034015;28;20209;-68
2021/08/25 07:58:31;;;;;;;20.03;14.63;;;;;;;23.88;47.87;94923.59;5031711;28;20193;-68
2021/08/25 08:01:13;;;;;;;22.40;14.30;;;;;;;24.15;48.22;94919.41;5039702;28;20632;-68
2021/08/25 08:03:41;;;;;;;16.63;13.93;;;;;;;23.90;47.68;94918.69;5037997;28;20220;-69
2021/08/25 08:06:08;;;;;;;21.50;14.97;;;;;;;23.86;46.75;94901.72;5037854;28;20216;-68
2021/08/25 08:08:36;;;;;;;32.90;20.30;;;;;;;23.95;46.33;94905.06;5037205;28;20781;-72
2021/08/25 08:11:02;;;;;;;72.93;65.70;;;;;;;24.18;47.77;94911.47;5032995;28;20204;-70
2021/08/25 08:13:29;;;;;;;34.53;30.90;;;;;;;24.17;46.95;94896.53;5034615;28;20217;-70
2021/08/25 08:15:56;;;;;;;22.17;14.33;;;;;;;24.24;46.65;94896.72;5040891;28;20210;-70
2021/08/25 08:18:36;;;;;;;23.37;14.40;;;;;;;24.13;47.63;94901.00;5032258;28;20276;-72
2021/08/25 08:21:04;;;;;;;18.67;13.77;;;;;;;24.49;48.41;94905.47;5033938;28;20230;-73
2021/08/25 08:23:32;;;;;;;16.27;13.43;;;;;;;24.62;47.40;94902.34;5036389;28;20197;-75
2021/08/25 08:25:59;;;;;;;26.20;16.20;;;;;;;24.41;46.71;94896.44;5030494;28;20232;-72
2021/08/25 08:28:26;;;;;;;18.93;15.33;;;;;;;24.60;46.69;94901.13;5038680;28;20207;-69
2021/08/25 08:30:53;;;;;;;21.50;15.60;;;;;;;24.64;47.51;94894.75;5033989;28;20730;-71
2021/08/25 08:33:20;;;;;;;121.53;95.07;;;;;;;24.79;46.01;94896.72;5028398;28;20229;-71
2021/08/25 08:35:47;;;;;;;21.27;16.40;;;;;;;24.92;46.69;94900.88;5032477;28;20197;-70
2021/08/25 08:38:14;;;;;;;31.23;21.80;;;;;;;25.07;45.50;94896.66;5035147;28;20201;-70
2021/08/25 08:40:41;;;;;;;34.07;20.47;;;;;;;24.92;45.78;94895.53;5035067;28;20193;-69
2021/08/25 08:43:10;;;;;;;30.87;19.10;;;;;;;25.09;46.50;94894.38;5036391;28;20274;-71
2021/08/25 08:45:42;;;;;;;27.07;17.77;;;;;;;25.07;45.10;94891.28;5036674;28;20200;-67
2021/08/25 08:48:12;;;;;;;22.63;18.07;;;;;;;24.81;44.93;94888.31;5032712;28;20229;-64
2021/08/25 08:50:42;;;;;;;23.83;17.00;;;;;;;24.89;46.63;94896.19;5032592;28;20200;-67
2021/08/25 08:53:11;;;;;;;30.00;17.93;;;;;;;25.02;46.71;94900.34;5037428;28;20213;-70
2021/08/25 08:55:39;;;;;;;27.60;18.40;;;;;;;24.95;47.58;94889.47;5032151;28;20200;-68
2021/08/25 08:58:06;;;;;;;28.37;20.13;;;;;;;24.78;46.63;94900.50;5034573;28;20205;-68
2021/08/25 09:00:33;;;;;;;25.80;19.70;;;;;;;24.51;46.61;94903.97;5034316;28;20694;-66
2021/08/25 09:03:01;;;;;;;35.83;21.53;;;;;;;24.37;47.26;94908.97;5040423;28;20205;-65
2021/08/25 09:05:32;;;;;;;24.50;19.87;;;;;;;24.45;47.90;94901.91;5036118;28;20205;-64
2021/08/25 09:08:21;;;;;;;27.60;19.30;;;;;;;24.54;47.51;94905.97;5033599;28;20224;-66
2021/08/25 09:11:02;;;;;;;27.50;19.63;;;;;;;24.69;49.26;94899.84;5031534;28;20672;-66
2021/08/25 09:13:35;;;;;;;25.67;18.63;;;;;;;24.65;47.53;94906.25;5036115;28;20231;-68
2021/08/25 09:16:03;;;;;;;23.63;18.27;;;;;;;24.79;50.42;94896.72;5033068;28;20274;-68
2021/08/25 09:18:31;;;;;;;30.37;19.83;;;;;;;24.86;48.75;94902.25;5033130;28;20191;-69
2021/08/25 09:20:58;;;;;;;32.20;24.40;;;;;;;24.88;46.89;94896.53;5032223;28;20251;-69
2021/08/25 09:23:27;;;;;;;28.03;22.03;;;;;;;25.16;48.19;94899.16;5034567;28;20184;-68
2021/08/25 09:25:57;;;;;;;32.73;26.47;;;;;;;25.34;47.42;94890.41;5033012;28;20201;-68
2021/08/25 09:28:29;;;;;;;32.33;26.13;;;;;;;25.03;46.72;94880.47;5034358;28;20192;-66
2021/08/25 09:31:04;;;;;;;28.87;21.10;;;;;;;25.49;47.99;94883.47;5050197;28;20579;-69
2021/08/25 09:33:41;;;;;;;29.70;21.57;;;;;;;25.30;46.96;94867.28;5051672;28;20222;-69
2021/08/25 09:36:15;;;;;;;25.83;20.87;;;;;;;25.45;46.81;94870.00;5042422;28;20203;-69
2021/08/25 09:38:56;;;;;;;33.57;22.33;;;;;;;25.54;47.60;94878.63;5052179;28;20196;-69
2021/08/25 09:41:23;;;;;;;32.03;27.23;;;;;;;25.23;46.45;94892.06;5043832;28;20577;-70
2021/08/25 09:43:52;;;;;;;61.50;54.97;;;;;;;25.46;47.22;94887.63;5052061;28;20201;-66
2021/08/25 09:46:21;;;;;;;49.30;43.97;;;;;;;25.44;47.53;94879.16;5051690;28;20200;-72
2021/08/25 09:48:51;;;;;;;24.97;22.20;;;;;;;25.42;47.50;94877.97;5040750;28;20216;-70
2021/08/25 09:51:22;;;;;;;25.30;19.70;;;;;;;25.54;47.66;94886.69;5040031;28;20264;-72
2021/08/25 09:53:51;;;;;;;23.57;19.37;;;;;;;25.31;46.99;94879.59;5037588;28;20233;-72
2021/08/25 09:56:26;;;;;;;25.87;21.63;;;;;;;25.30;48.21;94883.38;5051515;28;20599;-70
2021/08/25 09:58:55;;;;;;;28.30;21.10;;;;;;;25.25;48.23;94875.59;5051851;28;20654;-69
2021/08/25 10:01:22;;;;;;;20.43;18.23;;;;;;;24.95;46.54;94884.09;5051019;28;20189;-71
2021/08/25 10:03:52;;;;;;;24.03;17.87;;;;;;;24.66;47.07;94886.38;5050640;28;20204;-75
2021/08/25 10:06:21;;;;;;;30.27;18.20;;;;;;;24.89;47.24;94896.19;5050270;28;20248;-69
2021/08/25 10:08:49;;;;;;;28.07;18.87;;;;;;;24.87;47.42;94884.28;5051920;28;20235;-71
2021/08/25 10:11:22;;;;;;;31.73;28.03;;;;;;;24.94;46.61;94879.84;5034350;28;20197;-74
2021/08/25 10:13:49;;;;;;;45.47;34.00;;;;;;;25.13;47.18;94878.41;5033084;28;20287;-73
2021/08/25 10:16:40;;;;;;;28.53;20.73;;;;;;;25.16;46.99;94880.38;5036193;28;20206;-67
2021/08/25 10:19:39;;;;;;;30.07;21.60;;;;;;;25.02;47.18;94868.19;5038190;28;20687;-72
2021/08/25 10:22:15;;;;;;;24.20;17.13;;;;;;;24.93;47.50;94875.63;5049551;28;20292;-73
2021/08/25 10:25:00;;;;;;;26.70;20.73;;;;;;;24.93;47.78;94874.84;5049469;28;20200;-68
2021/08/25 10:27:30;;;;;;;28.00;21.57;;;;;;;24.79;48.49;94875.28;5043687;28;20280;-71
2021/08/25 10:30:12;;;;;;;31.67;24.57;;;;;;;24.52;48.82;94886.78;5043928;28;20216;-70
2021/08/25 10:33:07;;;;;;;23.60;17.47;;;;;;;24.73;50.76;94886.59;5051231;28;20741;-70
2021/08/25 10:35:34;;;;;;;24.43;17.87;;;;;;;24.85;53.60;94863.16;5043714;28;20288;-68
2021/08/25 10:38:31;;;;;;;27.50;19.90;;;;;;;24.77;56.35;94866.81;5050636;28;20200;-69
2021/08/25 10:41:19;;;;;;;31.63;20.40;;;;;;;25.18;58.13;94870.09;5053229;28;20663;-70
2021/08/25 10:43:46;;;;;;;22.30;18.67;;;;;;;25.55;57.61;94868.66;5050481;28;20192;-73
2021/08/25 10:46:17;;;;;;;23.03;18.70;;;;;;;25.81;55.81;94868.84;5049725;28;20185;-71
2021/08/25 10:48:55;;;;;;;21.97;17.50;;;;;;;26.06;54.28;94854.03;5048425;28;20192;-70
2021/08/25 10:51:34;;;;;;;26.47;19.57;;;;;;;26.12;49.62;94849.94;5049954;28;20303;-64
2021/08/25 10:54:13;;;;;;;36.70;31.23;;;;;;;26.14;49.80;94841.53;5050287;28;20224;-66
2021/08/25 10:56:45;;;;;;;103.63;92.90;;;;;;;26.55;51.31;94835.41;5045304;28;20197;-68
2021/08/25 10:59:20;;;;;;;24.90;19.97;;;;;;;26.60;52.65;94833.22;5039109;28;20667;-68
2021/08/25 11:01:48;;;;;;;27.23;20.37;;;;;;;27.00;49.59;94830.84;5031481;28;20258;-67
2021/08/25 11:04:22;;;;;;;22.07;19.57;;;;;;;26.91;46.66;94833.00;5034789;28;20192;-68
2021/08/25 11:06:58;;;;;;;28.33;20.10;;;;;;;27.08;46.70;94820.94;5049297;28;20291;-67
2021/08/25 11:09:27;;;;;;;20.30;17.60;;;;;;;27.26;43.79;94818.53;5050069;28;20200;-67
2021/08/25 11:12:14;;;;;;;22.20;18.23;;;;;;;27.26;43.09;94823.94;5049166;28;20193;-66
2021/08/25 11:14:42;;;;;;;24.47;17.97;;;;;;;27.29;44.24;94828.56;5049617;28;20220;-68
2021/08/25 11:17:30;;;;;;;21.63;19.27;;;;;;;27.00;44.95;94836.22;5049923;28;20219;-66
2021/08/25 11:20:03;;;;;;;23.30;18.97;;;;;;;26.93;45.97;94824.56;5050076;28;20200;-66
2021/08/25 11:22:41;;;;;;;22.83;18.80;;;;;;;27.19;45.96;94821.13;5049901;28;20228;-66
2021/08/25 11:25:16;;;;;;;21.80;18.30;;;;;;;27.55;46.72;94824.00;5049358;28;20204;-68